Time;durP1;ratioP1;P1;durP2;ratioP2;P2;SDS_P1;SDS_P2;PMS_P1;PMS_P2;Temp;Humidity;BMP_temperature;BMP_pressure;BME280_temperature;BME280_humidity;BME280_pressure;Samples;Min_cycle;Max_cycle;Signal;HPM_P1;HPM_P2
2023/08/28 00:01:49;;;;;;;;;;;27.40;45.50;;;;;;4995891;28;87724;-48
2023/08/28 00:04:14;;;;;;;;;;;27.40;45.60;;;;;;4995996;28;88348;-51
2023/08/28 00:06:40;;;;;;;;;;;27.40;45.60;;;;;;4992088;28;87032;-47
2023/08/28 00:09:05;;;;;;;;;;;27.40;45.60;;;;;;4996833;28;87721;-47
2023/08/28 00:11:31;;;;;;;;;;;27.40;45.60;;;;;;4993790;28;87210;-52
2023/08/28 00:13:56;;;;;;;;;;;27.40;45.70;;;;;;4995161;28;87899;-47
2023/08/28 00:16:22;;;;;;;;;;;27.40;45.70;;;;;;4991814;28;89568;-48
2023/08/28 00:18:48;;;;;;;;;;;27.30;45.60;;;;;;4995392;28;87210;-48
2023/08/28 00:21:13;;;;;;;;;;;27.30;45.70;;;;;;4992318;28;87291;-48
2023/08/28 00:23:39;;;;;;;;;;;27.30;45.70;;;;;;4994273;28;87242;-47
2023/08/28 00:26:04;;;;;;;;;;;27.30;46.40;;;;;;4993242;28;87131;-48
2023/08/28 00:28:30;;;;;;;;;;;27.30;45.70;;;;;;4994293;28;87674;-49
2023/08/28 00:30:55;;;;;;;;;;;27.20;45.70;;;;;;4996403;28;88623;-48
2023/08/28 00:33:21;;;;;;;;;;;27.20;45.70;;;;;;4993790;28;87621;-47
2023/08/28 00:35:46;;;;;;;;;;;27.20;45.70;;;;;;4995128;28;87969;-46
2023/08/28 00:38:12;;;;;;;;;;;27.20;45.80;;;;;;4992073;28;87246;-50
2023/08/28 00:40:40;;;;;;;;;;;27.20;45.90;;;;;;4993541;28;88071;-47
2023/08/28 00:43:06;;;;;;;;;;;27.20;45.80;;;;;;4992587;28;87509;-47
2023/08/28 00:45:32;;;;;;;;;;;27.10;45.80;;;;;;4991815;28;87143;-51
2023/08/28 00:47:58;;;;;;;;;;;27.20;45.90;;;;;;4993309;28;87533;-46
2023/08/28 00:50:23;;;;;;;;;;;27.10;45.80;;;;;;5006885;28;92006;-50
2023/08/28 00:52:49;;;;;;;;;;;27.10;45.80;;;;;;4997279;28;87199;-47
2023/08/28 00:55:15;;;;;;;;;;;27.10;45.80;;;;;;4991034;28;88029;-48
2023/08/28 00:57:40;;;;;;;;;;;27.10;45.90;;;;;;4995540;28;86498;-47
2023/08/28 01:00:07;;;;;;;;;;;27.00;45.90;;;;;;4992037;28;86998;-48
2023/08/28 01:02:33;;;;;;;;;;;27.00;45.90;;;;;;4993491;28;88542;-53
2023/08/28 01:04:59;;;;;;;;;;;27.00;45.80;;;;;;4994537;28;88095;-47
2023/08/28 01:07:26;;;;;;;;;;;27.00;45.90;;;;;;4990895;28;90072;-51
2023/08/28 01:10:08;;;;;;;;;;;27.00;45.90;;;;;;4994109;28;88489;-47
2023/08/28 01:12:46;;;;;;;;;;;27.00;45.90;;;;;;4993168;28;86970;-51
2023/08/28 01:15:17;;;;;;;;;;;27.00;46.00;;;;;;4994018;28;87478;-49
2023/08/28 01:17:44;;;;;;;;;;;26.90;45.90;;;;;;4993791;28;87087;-47
2023/08/28 01:20:13;;;;;;;;;;;26.90;46.00;;;;;;4995290;28;87636;-49
2023/08/28 01:22:42;;;;;;;;;;;26.90;46.10;;;;;;4991142;28;87218;-50
2023/08/28 01:25:11;;;;;;;;;;;26.90;46.00;;;;;;4993800;28;87195;-48
2023/08/28 01:27:37;;;;;;;;;;;26.90;46.00;;;;;;4994178;28;87590;-46
2023/08/28 01:30:10;;;;;;;;;;;26.90;46.10;;;;;;4991447;28;89477;-48
2023/08/28 01:32:36;;;;;;;;;;;26.90;46.10;;;;;;4992004;28;87140;-49
2023/08/28 01:35:03;;;;;;;;;;;26.80;46.00;;;;;;4995436;28;87751;-48
2023/08/28 01:37:34;;;;;;;;;;;26.80;46.00;;;;;;4990891;28;87140;-46
2023/08/28 01:40:01;;;;;;;;;;;26.80;46.10;;;;;;4993875;28;89132;-48
2023/08/28 01:42:28;;;;;;;;;;;26.70;46.10;;;;;;4992493;28;88531;-46
2023/08/28 01:44:54;;;;;;;;;;;26.80;46.10;;;;;;4992033;28;87065;-47
2023/08/28 01:47:22;;;;;;;;;;;26.80;46.10;;;;;;4994515;28;87687;-49
2023/08/28 01:49:47;;;;;;;;;;;26.70;46.10;;;;;;4991974;28;87103;-47
2023/08/28 01:52:13;;;;;;;;;;;26.70;46.10;;;;;;4990709;28;87025;-49
2023/08/28 01:54:38;;;;;;;;;;;26.70;46.10;;;;;;4991614;28;87963;-47
2023/08/28 01:57:04;;;;;;;;;;;26.70;46.20;;;;;;4995055;28;87385;-50
2023/08/28 01:59:30;;;;;;;;;;;26.70;46.10;;;;;;4992792;28;87958;-50
2023/08/28 02:01:56;;;;;;;;;;;26.60;46.10;;;;;;4991810;28;88221;-49
2023/08/28 02:04:21;;;;;;;;;;;26.70;46.20;;;;;;4993748;28;87082;-48
2023/08/28 02:06:47;;;;;;;;;;;26.60;46.10;;;;;;4988944;28;87714;-48
2023/08/28 02:09:13;;;;;;;;;;;26.60;46.20;;;;;;4993385;28;89462;-48
2023/08/28 02:11:38;;;;;;;;;;;26.60;46.20;;;;;;4991140;28;86757;-49
2023/08/28 02:14:04;;;;;;;;;;;26.60;46.20;;;;;;4999776;28;88953;-50
2023/08/28 02:16:29;;;;;;;;;;;26.50;46.20;;;;;;4991694;28;87431;-47
2023/08/28 02:18:55;;;;;;;;;;;26.50;46.20;;;;;;4994685;28;88124;-47
2023/08/28 02:21:20;;;;;;;;;;;26.50;46.20;;;;;;4990960;28;88315;-47
2023/08/28 02:23:46;;;;;;;;;;;26.50;46.30;;;;;;4991308;28;87163;-46
2023/08/28 02:26:11;;;;;;;;;;;26.50;46.30;;;;;;4992999;28;87484;-47
2023/08/28 02:28:37;;;;;;;;;;;26.50;46.30;;;;;;4990359;28;88314;-49
2023/08/28 02:31:03;;;;;;;;;;;26.50;46.30;;;;;;4993544;28;87000;-50
2023/08/28 02:33:29;;;;;;;;;;;26.40;46.20;;;;;;4991235;28;87694;-52
2023/08/28 02:35:54;;;;;;;;;;;26.40;46.20;;;;;;4991822;28;87821;-47
2023/08/28 02:38:20;;;;;;;;;;;26.40;46.30;;;;;;4991931;28;87127;-46
2023/08/28 02:40:45;;;;;;;;;;;26.50;46.30;;;;;;4993651;28;87773;-48
2023/08/28 02:43:11;;;;;;;;;;;26.40;46.30;;;;;;4994352;28;88082;-47
2023/08/28 02:45:38;;;;;;;;;;;26.30;46.30;;;;;;4994325;28;89035;-47
2023/08/28 02:48:04;;;;;;;;;;;26.30;46.30;;;;;;4996490;28;88295;-47
2023/08/28 02:50:30;;;;;;;;;;;26.30;46.40;;;;;;4996012;28;87762;-47
2023/08/28 02:52:56;;;;;;;;;;;26.30;46.30;;;;;;4993382;28;87740;-48
2023/08/28 02:55:22;;;;;;;;;;;26.30;46.40;;;;;;4994272;28;88688;-51
2023/08/28 02:57:48;;;;;;;;;;;26.30;46.40;;;;;;5007672;28;87255;-46
2023/08/28 03:00:13;;;;;;;;;;;26.30;46.40;;;;;;4996604;28;86762;-52
2023/08/28 03:02:39;;;;;;;;;;;26.20;46.40;;;;;;4996933;28;88458;-50
2023/08/28 03:05:05;;;;;;;;;;;26.20;46.40;;;;;;4996368;28;87916;-46
2023/08/28 03:07:31;;;;;;;;;;;26.30;46.40;;;;;;4992568;28;88798;-50
2023/08/28 03:09:56;;;;;;;;;;;26.30;46.40;;;;;;4996333;28;87117;-51
2023/08/28 03:12:22;;;;;;;;;;;26.20;46.30;;;;;;4996302;28;87815;-47
2023/08/28 03:14:47;;;;;;;;;;;26.20;46.40;;;;;;4994604;28;88410;-45
2023/08/28 03:17:13;;;;;;;;;;;26.10;46.30;;;;;;4994958;28;87028;-47
2023/08/28 03:19:38;;;;;;;;;;;26.20;46.40;;;;;;4995994;28;87705;-47
2023/08/28 03:22:04;;;;;;;;;;;26.20;46.50;;;;;;4992998;28;89526;-47
2023/08/28 03:24:30;;;;;;;;;;;26.10;46.40;;;;;;4996477;28;86258;-49
2023/08/28 03:26:56;;;;;;;;;;;26.10;46.40;;;;;;4996189;28;89128;-47
2023/08/28 03:29:21;;;;;;;;;;;26.10;46.50;;;;;;4996307;28;87112;-50
2023/08/28 03:31:47;;;;;;;;;;;26.00;46.50;;;;;;4993615;28;88025;-48
2023/08/28 03:34:12;;;;;;;;;;;26.00;46.50;;;;;;4995064;28;89124;-46
2023/08/28 03:36:38;;;;;;;;;;;26.00;46.50;;;;;;4993148;28;87892;-48
2023/08/28 03:39:03;;;;;;;;;;;26.00;46.50;;;;;;4995293;28;86993;-49
2023/08/28 03:41:29;;;;;;;;;;;26.00;46.60;;;;;;4996083;28;88273;-47
2023/08/28 03:43:54;;;;;;;;;;;25.90;46.60;;;;;;4995623;28;87156;-46
2023/08/28 03:46:20;;;;;;;;;;;26.00;46.70;;;;;;4996000;28;87413;-49
2023/08/28 03:48:45;;;;;;;;;;;26.00;46.60;;;;;;4993157;28;86365;-50
2023/08/28 03:51:11;;;;;;;;;;;25.90;46.50;;;;;;4995453;28;88090;-52
2023/08/28 03:53:37;;;;;;;;;;;25.90;46.60;;;;;;4992114;28;87871;-46
2023/08/28 03:56:03;;;;;;;;;;;25.90;46.60;;;;;;4993808;28;88026;-49
2023/08/28 03:58:29;;;;;;;;;;;25.90;46.60;;;;;;4996120;28;88981;-48
2023/08/28 04:00:54;;;;;;;;;;;25.80;46.60;;;;;;4992988;28;88476;-48
2023/08/28 04:03:20;;;;;;;;;;;25.80;46.60;;;;;;4995667;28;87190;-45
2023/08/28 04:05:48;;;;;;;;;;;25.80;46.60;;;;;;4995225;28;87355;-50
2023/08/28 04:08:14;;;;;;;;;;;25.80;46.70;;;;;;4991686;28;87289;-48
2023/08/28 04:10:39;;;;;;;;;;;25.70;46.60;;;;;;4994631;28;87656;-45
2023/08/28 04:13:05;;;;;;;;;;;25.70;46.70;;;;;;4995652;28;87706;-49
2023/08/28 04:15:31;;;;;;;;;;;25.70;46.70;;;;;;4994601;28;87586;-47
2023/08/28 04:17:59;;;;;;;;;;;25.70;46.60;;;;;;4992909;28;88906;-48
2023/08/28 04:20:25;;;;;;;;;;;25.70;46.70;;;;;;4994621;28;90812;-50
2023/08/28 04:22:50;;;;;;;;;;;25.70;46.70;;;;;;4992438;28;87645;-47
2023/08/28 04:25:16;;;;;;;;;;;25.70;46.70;;;;;;4992787;28;87953;-49
2023/08/28 04:27:42;;;;;;;;;;;25.70;46.70;;;;;;4997516;28;88412;-49
2023/08/28 04:30:08;;;;;;;;;;;25.70;46.80;;;;;;4994211;28;87769;-47
2023/08/28 04:32:34;;;;;;;;;;;25.60;46.70;;;;;;4993525;28;90386;-47
2023/08/28 04:35:00;;;;;;;;;;;25.60;46.80;;;;;;4992782;28;87119;-50
2023/08/28 04:37:26;;;;;;;;;;;25.60;46.80;;;;;;4992067;28;87981;-48
2023/08/28 04:39:51;;;;;;;;;;;25.60;46.80;;;;;;4995015;28;88406;-49
2023/08/28 04:42:17;;;;;;;;;;;25.60;46.80;;;;;;4994025;28;87220;-49
2023/08/28 04:44:42;;;;;;;;;;;25.60;46.80;;;;;;4992063;28;87940;-47
2023/08/28 04:47:08;;;;;;;;;;;25.60;46.90;;;;;;4993998;28;88189;-50
2023/08/28 04:49:33;;;;;;;;;;;25.50;47.00;;;;;;4995925;28;87169;-52
2023/08/28 04:51:59;;;;;;;;;;;25.50;46.80;;;;;;4990746;28;88285;-51
2023/08/28 04:54:24;;;;;;;;;;;25.50;46.80;;;;;;4994232;28;87159;-49
2023/08/28 04:56:50;;;;;;;;;;;25.50;46.80;;;;;;4992185;28;87450;-52
2023/08/28 04:59:15;;;;;;;;;;;25.50;46.90;;;;;;4994339;28;88566;-49
2023/08/28 05:01:41;;;;;;;;;;;25.50;46.90;;;;;;4992262;28;86463;-50
2023/08/28 05:04:07;;;;;;;;;;;25.50;46.90;;;;;;4994816;28;87016;-47
2023/08/28 05:06:32;;;;;;;;;;;25.50;47.00;;;;;;4990858;28;88710;-47
2023/08/28 05:08:58;;;;;;;;;;;25.40;46.90;;;;;;4990588;28;88134;-53
2023/08/28 05:11:23;;;;;;;;;;;25.50;47.00;;;;;;4995998;28;87768;-49
2023/08/28 05:13:49;;;;;;;;;;;25.40;46.90;;;;;;4992394;28;87094;-47
2023/08/28 05:16:14;;;;;;;;;;;25.40;47.00;;;;;;4994297;28;87829;-48
2023/08/28 05:18:40;;;;;;;;;;;25.40;46.90;;;;;;4991225;28;88243;-49
2023/08/28 05:21:05;;;;;;;;;;;25.40;46.90;;;;;;5001300;28;87293;-46
2023/08/28 05:23:31;;;;;;;;;;;25.40;47.00;;;;;;4989462;28;87089;-47
2023/08/28 05:25:57;;;;;;;;;;;25.40;47.00;;;;;;4994409;28;87087;-50
2023/08/28 05:28:22;;;;;;;;;;;25.40;47.10;;;;;;4994150;28;87266;-46
2023/08/28 05:30:48;;;;;;;;;;;25.40;47.10;;;;;;4995352;28;86999;-50
2023/08/28 05:33:13;;;;;;;;;;;25.40;47.10;;;;;;4992144;28;88083;-52
2023/08/28 05:35:39;;;;;;;;;;;25.40;47.10;;;;;;4993865;28;88474;-51
2023/08/28 05:38:07;;;;;;;;;;;25.40;47.10;;;;;;4991024;28;88734;-47
2023/08/28 05:40:33;;;;;;;;;;;25.40;47.10;;;;;;4991285;28;87117;-51
2023/08/28 05:42:59;;;;;;;;;;;25.40;47.20;;;;;;4994416;28;89206;-47
2023/08/28 05:45:25;;;;;;;;;;;25.40;47.20;;;;;;4991949;28;88154;-47
2023/08/28 05:47:50;;;;;;;;;;;25.30;47.20;;;;;;4992956;28;87152;-48
2023/08/28 05:50:18;;;;;;;;;;;25.30;47.20;;;;;;4993338;28;87474;-46
2023/08/28 05:52:46;;;;;;;;;;;25.30;47.20;;;;;;4991331;28;88526;-46
2023/08/28 05:55:11;;;;;;;;;;;25.30;47.20;;;;;;4994338;28;87718;-49
2023/08/28 05:57:37;;;;;;;;;;;25.30;47.30;;;;;;4989994;28;89673;-49
2023/08/28 06:00:04;;;;;;;;;;;25.30;47.40;;;;;;4994059;28;87118;-50
2023/08/28 06:02:29;;;;;;;;;;;25.30;47.30;;;;;;4992959;28;89112;-47
2023/08/28 06:04:55;;;;;;;;;;;25.30;47.40;;;;;;4992241;28;87871;-52
2023/08/28 06:07:20;;;;;;;;;;;25.30;47.40;;;;;;4992368;28;87100;-53
2023/08/28 06:09:46;;;;;;;;;;;25.30;47.40;;;;;;4990497;28;87706;-49
2023/08/28 06:12:12;;;;;;;;;;;25.30;47.50;;;;;;4993599;28;88174;-46
2023/08/28 06:14:37;;;;;;;;;;;25.30;47.50;;;;;;4997471;28;86655;-48
2023/08/28 06:17:05;;;;;;;;;;;25.30;47.50;;;;;;4989497;28;88711;-49
2023/08/28 06:19:31;;;;;;;;;;;25.30;47.50;;;;;;4993114;28;87095;-50
2023/08/28 06:21:57;;;;;;;;;;;25.30;47.40;;;;;;4991181;28;88069;-50
2023/08/28 06:24:22;;;;;;;;;;;25.30;47.50;;;;;;4988811;28;88454;-49
2023/08/28 06:26:48;;;;;;;;;;;25.30;47.60;;;;;;4991692;28;87090;-52
2023/08/28 06:29:13;;;;;;;;;;;25.30;47.50;;;;;;4993014;28;87809;-49
2023/08/28 06:31:39;;;;;;;;;;;25.30;47.70;;;;;;4993585;28;88187;-48
2023/08/28 06:34:04;;;;;;;;;;;25.30;47.60;;;;;;4990437;28;87026;-50
2023/08/28 06:36:30;;;;;;;;;;;25.30;47.60;;;;;;4995951;28;87189;-50
2023/08/28 06:38:56;;;;;;;;;;;25.30;47.60;;;;;;4989853;28;86354;-49
2023/08/28 06:41:22;;;;;;;;;;;25.30;47.70;;;;;;4992049;28;86898;-48
2023/08/28 06:43:48;;;;;;;;;;;25.30;47.70;;;;;;4993002;28;87663;-50
2023/08/28 06:46:14;;;;;;;;;;;25.20;47.60;;;;;;4992607;28;88019;-48
2023/08/28 06:48:39;;;;;;;;;;;25.30;47.70;;;;;;4990492;28;88276;-47
2023/08/28 06:51:05;;;;;;;;;;;25.20;47.70;;;;;;4993341;28;88512;-47
2023/08/28 06:53:30;;;;;;;;;;;25.20;47.20;;;;;;4991650;28;87175;-46
2023/08/28 06:55:56;;;;;;;;;;;25.20;47.70;;;;;;4993361;28;87726;-48
2023/08/28 06:58:22;;;;;;;;;;;25.30;47.80;;;;;;4993701;28;88352;-44
2023/08/28 07:00:47;;;;;;;;;;;25.20;48.40;;;;;;4991884;28;87171;-51
2023/08/28 07:03:13;;;;;;;;;;;25.20;50.60;;;;;;4992150;28;87716;-49
2023/08/28 07:05:39;;;;;;;;;;;25.10;49.70;;;;;;4992383;28;87159;-50
2023/08/28 07:08:04;;;;;;;;;;;25.10;49.40;;;;;;4991182;28;87560;-51
2023/08/28 07:10:30;;;;;;;;;;;25.20;49.10;;;;;;4988419;28;89410;-50
2023/08/28 07:12:55;;;;;;;;;;;25.20;49.00;;;;;;4993665;28;87207;-51
2023/08/28 07:15:41;;;;;;;;;;;25.20;49.00;;;;;;4990962;28;87654;-48
2023/08/28 07:18:06;;;;;;;;;;;25.20;48.80;;;;;;4989516;28;87616;-49
2023/08/28 07:20:32;;;;;;;;;;;25.30;48.90;;;;;;4996338;28;87123;-53
2023/08/28 07:22:58;;;;;;;;;;;25.20;48.70;;;;;;4992672;28;88291;-55
2023/08/28 07:25:23;;;;;;;;;;;25.20;48.80;;;;;;4989602;28;87146;-47
2023/08/28 07:27:49;;;;;;;;;;;25.20;48.70;;;;;;4992149;28;87658;-49
2023/08/28 07:30:15;;;;;;;;;;;25.20;48.70;;;;;;4994240;28;88277;-49
2023/08/28 07:32:40;;;;;;;;;;;25.20;48.70;;;;;;4995837;28;87078;-50
2023/08/28 07:35:07;;;;;;;;;;;25.20;48.60;;;;;;4993265;28;87984;-48
2023/08/28 07:37:36;;;;;;;;;;;25.20;48.70;;;;;;4996058;28;89414;-50
2023/08/28 07:40:03;;;;;;;;;;;25.20;48.60;;;;;;4994857;28;87531;-47
2023/08/28 07:42:29;;;;;;;;;;;25.20;48.60;;;;;;4994760;28;87979;-48
2023/08/28 07:44:55;;;;;;;;;;;25.20;48.70;;;;;;4994099;28;87184;-50
2023/08/28 07:47:20;;;;;;;;;;;25.20;48.60;;;;;;4994035;28;87240;-48
2023/08/28 07:49:46;;;;;;;;;;;25.20;48.60;;;;;;5010066;28;91302;-53
2023/08/28 07:52:11;;;;;;;;;;;25.30;48.70;;;;;;4993634;28;86657;-48
2023/08/28 07:54:37;;;;;;;;;;;25.30;48.70;;;;;;4995922;28;87019;-53
2023/08/28 07:57:04;;;;;;;;;;;25.20;48.70;;;;;;4992523;28;88401;-49
2023/08/28 07:59:29;;;;;;;;;;;25.20;48.70;;;;;;4994919;28;88112;-53
2023/08/28 08:01:55;;;;;;;;;;;25.20;48.70;;;;;;4995890;28;90020;-47
2023/08/28 08:04:21;;;;;;;;;;;25.20;48.70;;;;;;4994244;28;87081;-50
2023/08/28 08:06:46;;;;;;;;;;;25.20;48.70;;;;;;4995106;28;87595;-49
2023/08/28 08:09:12;;;;;;;;;;;25.20;49.30;;;;;;4993773;28;88407;-48
2023/08/28 08:11:37;;;;;;;;;;;25.30;48.80;;;;;;4995968;28;86899;-46
2023/08/28 08:14:03;;;;;;;;;;;25.20;48.70;;;;;;4992598;28;87510;-47
2023/08/28 08:16:29;;;;;;;;;;;25.30;48.70;;;;;;4995115;28;86596;-48
2023/08/28 08:18:54;;;;;;;;;;;25.20;48.70;;;;;;4993284;28;87118;-47
2023/08/28 08:21:20;;;;;;;;;;;25.30;48.80;;;;;;4994452;28;87555;-52
2023/08/28 08:23:47;;;;;;;;;;;25.20;48.70;;;;;;4996924;28;89353;-50
2023/08/28 08:26:13;;;;;;;;;;;25.30;48.70;;;;;;4991617;28;90150;-46
2023/08/28 08:28:39;;;;;;;;;;;25.30;48.70;;;;;;4994896;28;88815;-44
2023/08/28 08:31:05;;;;;;;;;;;25.30;49.90;;;;;;4991556;28;86996;-42
2023/08/28 08:33:30;;;;;;;;;;;25.40;51.30;;;;;;4995687;28;86999;-43
2023/08/28 08:35:56;;;;;;;;;;;25.40;52.50;;;;;;4992184;28;88694;-48
2023/08/28 08:38:21;;;;;;;;;;;25.50;52.40;;;;;;4995048;28;87116;-41
2023/08/28 08:40:50;;;;;;;;;;;25.60;51.90;;;;;;4991654;28;87674;-44
2023/08/28 08:43:16;;;;;;;;;;;25.60;52.50;;;;;;4992630;28;88718;-42
2023/08/28 08:45:44;;;;;;;;;;;25.60;52.20;;;;;;4997959;28;87063;-45
2023/08/28 08:48:12;;;;;;;;;;;25.70;52.60;;;;;;4993494;28;88383;-42
2023/08/28 08:50:37;;;;;;;;;;;25.80;51.20;;;;;;4992493;28;87035;-46
2023/08/28 08:53:09;;;;;;;;;;;25.70;51.70;;;;;;4994189;28;89021;-45
2023/08/28 08:55:46;;;;;;;;;;;25.70;51.50;;;;;;4995585;28;88323;-44
2023/08/28 08:58:13;;;;;;;;;;;25.80;52.10;;;;;;4992182;28;87011;-39
2023/08/28 09:00:43;;;;;;;;;;;25.90;52.00;;;;;;4993881;28;87594;-43
2023/08/28 09:03:08;;;;;;;;;;;25.90;51.80;;;;;;4991700;28;88483;-46
2023/08/28 09:05:34;;;;;;;;;;;26.00;51.70;;;;;;4994875;28;86436;-45
2023/08/28 09:08:01;;;;;;;;;;;26.00;51.90;;;;;;4994371;28;87170;-40
2023/08/28 09:10:27;;;;;;;;;;;26.10;52.60;;;;;;4990409;28;87163;-44
2023/08/28 09:12:54;;;;;;;;;;;26.10;52.00;;;;;;4991343;28;88020;-42
2023/08/28 09:15:20;;;;;;;;;;;26.20;51.60;;;;;;4993188;28;88525;-42
2023/08/28 09:17:45;;;;;;;;;;;26.10;50.40;;;;;;4994241;28;87188;-41
2023/08/28 09:20:29;;;;;;;;;;;26.10;50.10;;;;;;4993249;28;87609;-43
2023/08/28 09:22:55;;;;;;;;;;;26.10;49.50;;;;;;4992151;28;88182;-42
2023/08/28 09:25:24;;;;;;;;;;;26.20;50.20;;;;;;4991720;28;87752;-43
2023/08/28 09:27:51;;;;;;;;;;;26.20;50.00;;;;;;4991759;28;87045;-49
2023/08/28 09:30:29;;;;;;;;;;;26.20;50.50;;;;;;4997436;28;87652;-55
2023/08/28 09:32:56;;;;;;;;;;;26.40;47.50;;;;;;4994109;28;87073;-53
2023/08/28 09:35:22;;;;;;;;;;;26.40;46.60;;;;;;4992972;28;88241;-53
2023/08/28 09:38:00;;;;;;;;;;;26.40;47.20;;;;;;4990891;28;88696;-45
2023/08/28 09:40:27;;;;;;;;;;;26.50;45.80;;;;;;4991358;28;87696;-45
2023/08/28 09:42:53;;;;;;;;;;;26.60;45.60;;;;;;4993135;28;87451;-48
2023/08/28 09:45:18;;;;;;;;;;;26.60;46.20;;;;;;4992345;28;87536;-48
2023/08/28 09:47:44;;;;;;;;;;;26.70;44.10;;;;;;5000530;28;89276;-44
2023/08/28 09:50:10;;;;;;;;;;;26.80;43.80;;;;;;4993220;28;89227;-50
2023/08/28 09:52:35;;;;;;;;;;;26.90;44.50;;;;;;4994425;28;87737;-44
2023/08/28 09:55:04;;;;;;;;;;;26.90;45.00;;;;;;4991219;28;87812;-50
2023/08/28 09:57:30;;;;;;;;;;;27.00;43.90;;;;;;4991497;28;87841;-43
2023/08/28 09:59:55;;;;;;;;;;;27.00;44.20;;;;;;4992368;28;87728;-43
2023/08/28 10:02:21;;;;;;;;;;;27.10;43.80;;;;;;4992346;28;89263;-46
2023/08/28 10:04:49;;;;;;;;;;;27.10;44.00;;;;;;4993405;28;87114;-43
2023/08/28 10:07:15;;;;;;;;;;;27.20;44.40;;;;;;4990685;28;87580;-45
2023/08/28 10:09:43;;;;;;;;;;;27.30;44.10;;;;;;4993717;28;87799;-43
2023/08/28 10:12:10;;;;;;;;;;;27.20;44.10;;;;;;4992849;28;87098;-43
2023/08/28 10:14:35;;;;;;;;;;;27.40;43.50;;;;;;4991734;28;88907;-43
2023/08/28 10:17:04;;;;;;;;;;;27.50;42.10;;;;;;4993859;28;87422;-42
2023/08/28 10:19:45;;;;;;;;;;;27.50;42.00;;;;;;4992989;28;87948;-48
2023/08/28 10:22:11;;;;;;;;;;;27.40;41.60;;;;;;4990883;28;89661;-42
2023/08/28 10:24:39;;;;;;;;;;;27.50;42.00;;;;;;4993712;28;87098;-48
2023/08/28 10:27:05;;;;;;;;;;;27.60;42.20;;;;;;4989776;28;87970;-41
2023/08/28 10:29:32;;;;;;;;;;;27.80;41.30;;;;;;4988922;28;88356;-45
2023/08/28 10:31:58;;;;;;;;;;;27.70;41.90;;;;;;4988867;28;87063;-42
2023/08/28 10:34:24;;;;;;;;;;;27.60;40.80;;;;;;4994782;28;87596;-46
2023/08/28 10:36:51;;;;;;;;;;;27.50;40.10;;;;;;4992269;28;87219;-48
2023/08/28 10:39:17;;;;;;;;;;;27.60;41.50;;;;;;4989595;28;87388;-50
2023/08/28 10:41:43;;;;;;;;;;;27.60;42.60;;;;;;4989334;28;88513;-42
2023/08/28 10:44:09;;;;;;;;;;;27.60;43.90;;;;;;4993766;28;86282;-51
2023/08/28 10:46:35;;;;;;;;;;;27.60;43.00;;;;;;4990153;28;87183;-53
2023/08/28 10:49:04;;;;;;;;;;;27.50;42.80;;;;;;4988804;28;87433;-50
2023/08/28 10:51:31;;;;;;;;;;;27.60;43.10;;;;;;4991781;28;88091;-49
2023/08/28 10:54:01;;;;;;;;;;;27.60;42.70;;;;;;4991345;28;88979;-50
2023/08/28 10:56:29;;;;;;;;;;;27.60;42.40;;;;;;4992920;28;88096;-49
2023/08/28 10:59:15;;;;;;;;;;;27.60;41.80;;;;;;4989614;28;87900;-47
2023/08/28 11:01:51;;;;;;;;;;;27.70;42.00;;;;;;4990252;28;88680;-51
2023/08/28 11:04:16;;;;;;;;;;;27.70;42.40;;;;;;4994741;28;87150;-47
2023/08/28 11:06:43;;;;;;;;;;;27.70;42.40;;;;;;4994543;28;89287;-50
2023/08/28 11:09:30;;;;;;;;;;;27.80;42.30;;;;;;4994887;28;88660;-52
2023/08/28 11:12:01;;;;;;;;;;;27.80;41.80;;;;;;4993821;28;87719;-51
2023/08/28 11:14:39;;;;;;;;;;;27.80;42.40;;;;;;4993959;28;87369;-48
2023/08/28 11:17:04;;;;;;;;;;;27.80;41.70;;;;;;4993335;28;89377;-49
2023/08/28 11:19:30;;;;;;;;;;;27.80;42.80;;;;;;4997924;28;87076;-48
2023/08/28 11:21:59;;;;;;;;;;;27.70;42.90;;;;;;4994920;28;87945;-52
2023/08/28 11:24:24;;;;;;;;;;;27.70;43.10;;;;;;4993820;28;87173;-48
2023/08/28 11:26:50;;;;;;;;;;;27.80;43.20;;;;;;4997853;28;87735;-46
2023/08/28 11:29:25;;;;;;;;;;;27.80;43.30;;;;;;4992419;28;88556;-50
2023/08/28 11:31:51;;;;;;;;;;;27.70;43.40;;;;;;4994505;28;87036;-49
2023/08/28 11:34:17;;;;;;;;;;;27.70;43.50;;;;;;4995028;28;87429;-51
2023/08/28 11:36:42;;;;;;;;;;;27.70;43.60;;;;;;4993226;28;90052;-49
2023/08/28 11:39:28;;;;;;;;;;;27.70;43.70;;;;;;4996093;28;87529;-46
2023/08/28 11:41:53;;;;;;;;;;;27.70;43.80;;;;;;4997253;28;88604;-48
2023/08/28 11:44:19;;;;;;;;;;;27.70;43.90;;;;;;4996217;28;87035;-49
2023/08/28 11:46:45;;;;;;;;;;;27.70;43.90;;;;;;4995954;28;89130;-46
2023/08/28 11:49:12;;;;;;;;;;;27.70;44.00;;;;;;4991441;28;88889;-46
2023/08/28 11:51:38;;;;;;;;;;;27.70;44.20;;;;;;4995563;28;87151;-49
2023/08/28 11:54:03;;;;;;;;;;;27.80;44.30;;;;;;4993916;28;87754;-48
2023/08/28 11:56:32;;;;;;;;;;;27.80;44.20;;;;;;4994295;28;88391;-47
2023/08/28 11:58:58;;;;;;;;;;;27.80;44.30;;;;;;4995988;28;86550;-48
2023/08/28 12:01:24;;;;;;;;;;;27.80;44.40;;;;;;4995486;28;87027;-47
2023/08/28 12:03:55;;;;;;;;;;;27.80;44.50;;;;;;4995758;28;88016;-48
2023/08/28 12:06:20;;;;;;;;;;;27.80;44.50;;;;;;4992656;28;88814;-48
2023/08/28 12:08:46;;;;;;;;;;;27.80;44.50;;;;;;4994132;28;88557;-49
2023/08/28 12:11:15;;;;;;;;;;;27.80;42.60;;;;;;4995173;28;87370;-52
2023/08/28 12:13:40;;;;;;;;;;;27.80;41.60;;;;;;4991858;28;89010;-49
2023/08/28 12:16:12;;;;;;;;;;;27.90;40.40;;;;;;4994115;28;88609;-49
2023/08/28 12:18:45;;;;;;;;;;;27.90;40.40;;;;;;4992873;28;87113;-51
2023/08/28 12:21:11;;;;;;;;;;;27.90;39.90;;;;;;4991803;28;87520;-47
2023/08/28 12:23:45;;;;;;;;;;;27.90;39.90;;;;;;4997664;28;89098;-55
2023/08/28 12:26:10;;;;;;;;;;;28.00;40.10;;;;;;4995302;28;87148;-49
2023/08/28 12:28:36;;;;;;;;;;;28.10;39.50;;;;;;4991539;28;88342;-52
2023/08/28 12:31:01;;;;;;;;;;;28.10;39.30;;;;;;4992813;28;88360;-52
2023/08/28 12:33:27;;;;;;;;;;;28.10;40.30;;;;;;4994006;28;88523;-49
2023/08/28 12:35:53;;;;;;;;;;;28.10;40.10;;;;;;4993268;28;88703;-48
2023/08/28 12:38:19;;;;;;;;;;;28.10;39.30;;;;;;4992654;28;87684;-44
2023/08/28 12:40:49;;;;;;;;;;;28.10;40.20;;;;;;4995326;28;89076;-48
2023/08/28 12:43:16;;;;;;;;;;;28.20;39.50;;;;;;4991580;28;90020;-53
2023/08/28 12:45:42;;;;;;;;;;;28.20;39.20;;;;;;4997250;28;87104;-50
2023/08/28 12:48:08;;;;;;;;;;;28.30;39.00;;;;;;4995147;28;87497;-51
2023/08/28 12:50:34;;;;;;;;;;;28.30;39.50;;;;;;4994987;28;87433;-52
2023/08/28 12:53:00;;;;;;;;;;;28.30;39.20;;;;;;4992018;28;88950;-52
2023/08/28 12:55:26;;;;;;;;;;;28.30;39.00;;;;;;4994140;28;89030;-53
2023/08/28 12:57:51;;;;;;;;;;;28.50;40.10;;;;;;4991696;28;87011;-52
2023/08/28 13:00:17;;;;;;;;;;;28.50;40.20;;;;;;4992022;28;88133;-50
2023/08/28 13:02:43;;;;;;;;;;;28.50;39.80;;;;;;4993813;28;88800;-52
2023/08/28 13:05:09;;;;;;;;;;;28.60;40.10;;;;;;4994161;28;87373;-48
2023/08/28 13:07:34;;;;;;;;;;;28.60;39.70;;;;;;4995572;28;87907;-43
2023/08/28 13:10:00;;;;;;;;;;;28.70;40.00;;;;;;4994082;28;87111;-46
2023/08/28 13:12:26;;;;;;;;;;;28.60;41.20;;;;;;4992255;28;89064;-49
2023/08/28 13:14:51;;;;;;;;;;;28.70;40.80;;;;;;4994473;28;88604;-45
2023/08/28 13:17:17;;;;;;;;;;;28.70;40.60;;;;;;4991299;28;87109;-47
2023/08/28 13:19:42;;;;;;;;;;;28.70;40.50;;;;;;4994629;28;87990;-55
2023/08/28 13:22:08;;;;;;;;;;;28.70;40.30;;;;;;4993093;28;87617;-56
2023/08/28 13:24:33;;;;;;;;;;;28.80;39.80;;;;;;4992404;28;87115;-55
2023/08/28 13:26:59;;;;;;;;;;;28.80;39.80;;;;;;4992691;28;88014;-55
2023/08/28 13:29:24;;;;;;;;;;;28.80;40.00;;;;;;4993371;28;88735;-54
2023/08/28 13:31:50;;;;;;;;;;;28.80;39.20;;;;;;4997630;28;87690;-56
2023/08/28 13:34:15;;;;;;;;;;;28.90;39.70;;;;;;4997695;28;89215;-52
2023/08/28 13:36:41;;;;;;;;;;;29.00;39.50;;;;;;5003803;28;86479;-56
2023/08/28 13:39:07;;;;;;;;;;;29.00;39.20;;;;;;5003181;28;87144;-51
2023/08/28 13:41:33;;;;;;;;;;;29.00;39.20;;;;;;5002917;28;88461;-55
2023/08/28 13:43:58;;;;;;;;;;;29.10;39.20;;;;;;4994225;28;88301;-55
2023/08/28 13:46:24;;;;;;;;;;;29.10;38.60;;;;;;4992391;28;88687;-56
2023/08/28 13:48:50;;;;;;;;;;;29.20;39.00;;;;;;4990726;28;89420;-55
2023/08/28 13:51:15;;;;;;;;;;;29.10;38.50;;;;;;4995721;28;87797;-57
2023/08/28 13:53:41;;;;;;;;;;;29.20;38.40;;;;;;4994099;28;87597;-57
2023/08/28 13:56:07;;;;;;;;;;;29.20;38.30;;;;;;4991925;28;87115;-52
2023/08/28 13:58:32;;;;;;;;;;;29.20;38.10;;;;;;4993639;28;87902;-53
2023/08/28 14:01:03;;;;;;;;;;;29.30;38.30;;;;;;4990113;28;87469;-55
2023/08/28 14:03:28;;;;;;;;;;;29.30;38.80;;;;;;4993053;28;87105;-52
2023/08/28 14:06:05;;;;;;;;;;;29.30;39.40;;;;;;4991922;28;87097;-51
2023/08/28 14:08:31;;;;;;;;;;;29.40;39.30;;;;;;4990083;28;89247;-59
2023/08/28 14:11:03;;;;;;;;;;;29.30;39.00;;;;;;4995470;28;87164;-54
2023/08/28 14:13:28;;;;;;;;;;;29.40;39.80;;;;;;4991343;28;88094;-54